Time,TemperatureF,DewpointF,PressureIn,WindDirection,WindDirectionDegrees,WindSpeedMPH,WindSpeedGustMPH,Humidity,HourlyPrecipIn,Conditions,Clouds,dailyrainin,SolarRadiationWatts/m^2,SoftwareType,DateUTC
2013-05-20 00:12:00,61.0,57.0,-100.00,SE,137,3.0,8.0,87,0.00,,,0.90,0.000000,,2013-05-20 05:12:00,
2013-05-20 00:22:00,61.0,57.0,-100.00,SE,137,3.0,8.0,87,0.00,,,0.90,0.000000,,2013-05-20 05:22:00,
2013-05-20 00:32:00,61.0,57.0,-100.00,SE,137,3.0,8.0,87,0.00,,,0.90,0.000000,,2013-05-20 05:32:00,
2013-05-20 00:42:00,61.0,57.0,-100.00,SE,137,3.0,8.0,87,0.00,,,0.90,0.000000,,2013-05-20 05:42:00,
2013-05-20 01:11:00,59.0,56.0,-100.00,West,280,2.0,7.0,91,0.00,,,0.71,0.000000,,2013-05-20 06:11:00,
2013-05-20 01:21:00,59.0,56.0,-100.00,West,280,2.0,7.0,91,0.00,,,0.71,0.000000,,2013-05-20 06:21:00,
2013-05-20 01:32:00,59.0,56.0,-100.00,West,280,2.0,7.0,91,0.00,,,0.71,0.000000,,2013-05-20 06:32:00,
2013-05-20 01:41:00,59.0,56.0,-100.00,West,280,2.0,7.0,91,0.00,,,0.71,0.000000,,2013-05-20 06:41:00,
2013-05-20 02:12:00,59.0,56.0,-100.00,South,170,4.0,10.0,90,0.00,,,0.39,0.000000,,2013-05-20 07:12:00,
2013-05-20 02:21:00,59.0,56.0,-100.00,South,170,4.0,10.0,90,0.00,,,0.39,0.000000,,2013-05-20 07:21:00,
2013-05-20 02:32:00,59.0,56.0,-100.00,South,170,4.0,10.0,90,0.00,,,0.39,0.000000,,2013-05-20 07:32:00,
2013-05-20 02:42:00,59.0,56.0,-100.00,South,170,4.0,10.0,90,0.00,,,0.39,0.000000,,2013-05-20 07:42:00,
2013-05-20 03:11:00,58.0,56.0,-100.00,SE,136,3.0,8.0,94,0.00,,,0.32,0.000000,,2013-05-20 08:11:00,
2013-05-20 03:21:00,58.0,56.0,-100.00,SE,136,3.0,8.0,94,0.00,,,0.32,0.000000,,2013-05-20 08:21:00,
2013-05-20 03:32:00,58.0,56.0,-100.00,SE,136,3.0,8.0,94,0.00,,,0.32,0.000000,,2013-05-20 08:32:00,
2013-05-20 03:41:00,58.0,56.0,-100.00,SE,136,3.0,8.0,94,0.00,,,0.32,0.000000,,2013-05-20 08:41:00,
2013-05-20 04:12:00,59.0,57.0,-100.00,SSE,154,5.0,10.0,94,0.00,,,-99.99,0.000000,,2013-05-20 09:12:00,
2013-05-20 04:21:00,59.0,57.0,-100.00,SSE,154,5.0,10.0,94,0.00,,,-99.99,0.000000,,2013-05-20 09:21:00,
2013-05-20 04:32:00,59.0,57.0,-100.00,SSE,154,5.0,10.0,94,0.00,,,-99.99,0.000000,,2013-05-20 09:32:00,
2013-05-20 04:43:00,59.0,57.0,-100.00,SSE,154,5.0,10.0,94,0.00,,,-99.99,0.000000,,2013-05-20 09:43:00,
2013-05-20 05:12:00,58.0,58.0,-100.00,SSE,167,5.0,9.0,100,0.00,,,0.32,0.000000,,2013-05-20 10:12:00,
2013-05-20 05:22:00,58.0,58.0,-100.00,SSE,167,5.0,9.0,100,0.00,,,0.32,0.000000,,2013-05-20 10:22:00,
2013-05-20 05:32:00,58.0,58.0,-100.00,SSE,167,5.0,9.0,100,0.00,,,0.32,0.000000,,2013-05-20 10:32:00,
2013-05-20 05:42:00,58.0,58.0,-100.00,SSE,167,5.0,9.0,100,0.00,,,0.32,0.000000,,2013-05-20 10:42:00,
2013-05-20 06:12:00,59.0,57.0,-100.00,South,188,6.0,11.0,94,0.00,,,0.32,0.000000,,2013-05-20 11:12:00,
2013-05-20 06:21:00,59.0,57.0,-100.00,South,188,6.0,11.0,94,0.00,,,0.32,0.000000,,2013-05-20 11:21:00,
2013-05-20 06:32:00,59.0,57.0,-100.00,South,188,6.0,11.0,94,0.00,,,0.32,0.000000,,2013-05-20 11:32:00,
2013-05-20 06:42:00,59.0,57.0,-100.00,South,188,6.0,11.0,94,0.00,,,0.32,0.000000,,2013-05-20 11:42:00,
2013-05-20 07:11:00,59.0,56.0,-100.00,SSW,207,7.0,12.0,91,0.00,,,0.32,14.000000,,2013-05-20 12:11:00,
2013-05-20 07:21:00,59.0,56.0,-100.00,SSW,207,7.0,12.0,91,0.00,,,0.32,14.000000,,2013-05-20 12:21:00,
2013-05-20 07:32:00,59.0,56.0,-100.00,SSW,207,7.0,12.0,91,0.00,,,0.32,14.000000,,2013-05-20 12:32:00,
2013-05-20 07:41:00,59.0,56.0,-100.00,SSW,207,7.0,12.0,91,0.00,,,0.32,14.000000,,2013-05-20 12:41:00,
2013-05-20 08:11:00,60.0,57.0,-100.00,SW,233,8.0,15.0,89,0.00,,,0.32,62.000000,,2013-05-20 13:11:00,
2013-05-20 08:22:00,60.0,57.0,-100.00,SW,233,8.0,15.0,89,0.00,,,0.32,62.000000,,2013-05-20 13:22:00,
2013-05-20 08:31:00,60.0,57.0,-100.00,SW,233,8.0,15.0,89,0.00,,,0.32,62.000000,,2013-05-20 13:31:00,
2013-05-20 08:41:00,60.0,57.0,-100.00,SW,233,8.0,15.0,89,0.00,,,0.32,62.000000,,2013-05-20 13:41:00,
2013-05-20 09:11:00,63.0,57.0,-100.00,WSW,250,8.0,14.0,81,0.00,,,0.32,181.000000,,2013-05-20 14:11:00,
2013-05-20 09:22:00,63.0,57.0,-100.00,WSW,250,8.0,14.0,81,0.00,,,0.32,181.000000,,2013-05-20 14:22:00,
2013-05-20 09:32:00,63.0,57.0,-100.00,WSW,250,8.0,14.0,81,0.00,,,0.32,181.000000,,2013-05-20 14:32:00,
2013-05-20 09:41:00,63.0,57.0,-100.00,WSW,250,8.0,14.0,81,0.00,,,0.32,181.000000,,2013-05-20 14:41:00,
2013-05-20 10:11:00,65.0,55.0,-100.00,WSW,250,8.0,17.0,71,0.00,,,0.27,422.000000,,2013-05-20 15:11:00,
2013-05-20 10:21:00,65.0,55.0,-100.00,WSW,250,8.0,17.0,71,0.00,,,0.27,422.000000,,2013-05-20 15:21:00,
2013-05-20 10:33:00,65.0,55.0,-100.00,WSW,250,8.0,17.0,71,0.00,,,0.27,422.000000,,2013-05-20 15:33:00,
2013-05-20 10:42:00,65.0,55.0,-100.00,WSW,250,8.0,17.0,71,0.00,,,0.27,422.000000,,2013-05-20 15:42:00,
2013-05-20 11:13:00,69.0,55.0,-100.00,SW,224,9.0,21.0,60,0.00,,,0.24,773.000000,,2013-05-20 16:13:00,
2013-05-20 11:22:00,69.0,55.0,-100.00,SW,224,9.0,21.0,60,0.00,,,0.24,773.000000,,2013-05-20 16:22:00,
2013-05-20 11:33:00,69.0,55.0,-100.00,SW,224,9.0,21.0,60,0.00,,,0.24,773.000000,,2013-05-20 16:33:00,
2013-05-20 11:42:00,69.0,55.0,-100.00,SW,224,9.0,21.0,60,0.00,,,0.24,773.000000,,2013-05-20 16:42:00,
2013-05-20 12:12:00,71.0,54.0,-100.00,SW,228,10.0,21.0,56,0.00,,,0.22,831.000000,,2013-05-20 17:12:00,
2013-05-20 12:22:00,71.0,54.0,-100.00,SW,228,10.0,21.0,56,0.00,,,0.22,831.000000,,2013-05-20 17:22:00,
2013-05-20 12:33:00,71.0,54.0,-100.00,SW,228,10.0,21.0,56,0.00,,,0.22,831.000000,,2013-05-20 17:33:00,
2013-05-20 12:45:00,71.0,54.0,-100.00,SW,228,10.0,21.0,56,0.00,,,0.22,831.000000,,2013-05-20 17:45:00,
2013-05-20 13:12:00,74.0,55.0,-100.00,SW,222,11.0,21.0,52,0.00,,,0.22,945.000000,,2013-05-20 18:12:00,
2013-05-20 13:23:00,74.0,55.0,-100.00,SW,222,11.0,21.0,52,0.00,,,0.22,945.000000,,2013-05-20 18:23:00,
2013-05-20 13:32:00,74.0,55.0,-100.00,SW,222,11.0,21.0,52,0.00,,,0.22,945.000000,,2013-05-20 18:32:00,
2013-05-20 13:42:00,74.0,55.0,-100.00,SW,222,11.0,21.0,52,0.00,,,0.22,945.000000,,2013-05-20 18:42:00,
2013-05-20 14:11:00,71.0,54.0,-100.00,SW,216,10.0,20.0,54,0.00,,,0.22,489.000000,,2013-05-20 19:11:00,
2013-05-20 14:21:00,71.0,54.0,-100.00,SW,216,10.0,20.0,54,0.00,,,0.22,489.000000,,2013-05-20 19:21:00,
2013-05-20 14:32:00,71.0,54.0,-100.00,SW,216,10.0,20.0,54,0.00,,,0.22,489.000000,,2013-05-20 19:32:00,
2013-05-20 14:41:00,71.0,54.0,-100.00,SW,216,10.0,20.0,54,0.00,,,0.22,489.000000,,2013-05-20 19:41:00,
2013-05-20 15:12:00,75.0,57.0,-100.00,South,188,10.0,21.0,53,0.00,,,0.22,509.000000,,2013-05-20 20:12:00,
2013-05-20 15:21:00,75.0,57.0,-100.00,South,188,10.0,21.0,53,0.00,,,0.22,509.000000,,2013-05-20 20:21:00,
2013-05-20 15:32:00,75.0,57.0,-100.00,South,188,10.0,21.0,53,0.00,,,0.22,509.000000,,2013-05-20 20:32:00,
2013-05-20 15:42:00,75.0,57.0,-100.00,South,188,10.0,21.0,53,0.00,,,0.22,509.000000,,2013-05-20 20:42:00,
2013-05-20 16:11:00,78.0,56.0,-100.00,SSW,196,13.0,23.0,47,0.00,,,0.09,729.000000,,2013-05-20 21:11:00,
2013-05-20 16:21:00,78.0,56.0,-100.00,SSW,196,13.0,23.0,47,0.00,,,0.09,729.000000,,2013-05-20 21:21:00,
2013-05-20 16:33:00,78.0,56.0,-100.00,SSW,196,13.0,23.0,47,0.00,,,0.09,729.000000,,2013-05-20 21:33:00,
2013-05-20 16:43:00,78.0,56.0,-100.00,SSW,196,13.0,23.0,47,0.00,,,0.09,729.000000,,2013-05-20 21:43:00,
2013-05-20 17:12:00,77.0,56.0,-100.00,SW,217,14.0,23.0,49,0.00,,,0.01,417.000000,,2013-05-20 22:12:00,
2013-05-20 17:23:00,77.0,56.0,-100.00,SW,217,14.0,23.0,49,0.00,,,0.01,417.000000,,2013-05-20 22:23:00,
2013-05-20 17:33:00,77.0,56.0,-100.00,SW,217,14.0,23.0,49,0.00,,,0.01,417.000000,,2013-05-20 22:33:00,
2013-05-20 17:42:00,77.0,56.0,-100.00,SW,217,14.0,23.0,49,0.00,,,0.01,417.000000,,2013-05-20 22:42:00,
2013-05-20 18:12:00,77.0,53.0,-100.00,SW,225,11.0,28.0,44,0.00,,,0.01,515.000000,,2013-05-20 23:12:00,
2013-05-20 18:22:00,77.0,53.0,-100.00,SW,225,11.0,28.0,44,0.00,,,0.01,515.000000,,2013-05-20 23:22:00,
2013-05-20 18:32:00,77.0,53.0,-100.00,SW,225,11.0,28.0,44,0.00,,,0.01,515.000000,,2013-05-20 23:32:00,
2013-05-20 18:42:00,77.0,53.0,-100.00,SW,225,11.0,28.0,44,0.00,,,0.01,515.000000,,2013-05-20 23:42:00,
2013-05-20 19:11:00,75.0,52.0,-100.00,SW,229,9.0,24.0,45,0.00,,,0.01,291.000000,,2013-05-21 00:11:00,
2013-05-20 19:21:00,75.0,52.0,-100.00,SW,229,9.0,24.0,45,0.00,,,0.01,291.000000,,2013-05-21 00:21:00,
2013-05-20 19:32:00,75.0,52.0,-100.00,SW,229,9.0,24.0,45,0.00,,,0.01,291.000000,,2013-05-21 00:32:00,
2013-05-20 19:42:00,75.0,52.0,-100.00,SW,229,9.0,24.0,45,0.00,,,0.01,291.000000,,2013-05-21 00:42:00,
2013-05-20 20:11:00,74.0,51.0,-100.00,WSW,240,8.0,17.0,44,0.00,,,0.01,257.000000,,2013-05-21 01:11:00,
2013-05-20 20:22:00,74.0,51.0,-100.00,WSW,240,8.0,17.0,44,0.00,,,0.01,257.000000,,2013-05-21 01:22:00,
2013-05-20 20:32:00,74.0,51.0,-100.00,WSW,240,8.0,17.0,44,0.00,,,0.01,257.000000,,2013-05-21 01:32:00,
2013-05-20 20:42:00,74.0,51.0,-100.00,WSW,240,8.0,17.0,44,0.00,,,0.01,257.000000,,2013-05-21 01:42:00,
2013-05-20 21:11:00,69.0,51.0,-100.00,SW,229,4.0,15.0,53,0.00,,,0.01,48.000000,,2013-05-21 02:11:00,
2013-05-20 21:21:00,69.0,51.0,-100.00,SW,229,4.0,15.0,53,0.00,,,0.01,48.000000,,2013-05-21 02:21:00,
2013-05-20 21:32:00,69.0,51.0,-100.00,SW,229,4.0,15.0,53,0.00,,,0.01,48.000000,,2013-05-21 02:32:00,
2013-05-20 21:42:00,69.0,51.0,-100.00,SW,229,4.0,15.0,53,0.00,,,0.01,48.000000,,2013-05-21 02:42:00,
2013-05-20 22:11:00,67.0,50.0,-100.00,WSW,238,5.0,11.0,55,0.00,,,0.01,0.000000,,2013-05-21 03:11:00,
2013-05-20 22:21:00,67.0,50.0,-100.00,WSW,238,5.0,11.0,55,0.00,,,0.01,0.000000,,2013-05-21 03:21:00,
2013-05-20 22:33:00,67.0,50.0,-100.00,WSW,238,5.0,11.0,55,0.00,,,0.01,0.000000,,2013-05-21 03:33:00,
2013-05-20 22:43:00,67.0,50.0,-100.00,WSW,238,5.0,11.0,55,0.00,,,0.01,0.000000,,2013-05-21 03:43:00,
2013-05-20 23:13:00,65.0,50.0,-100.00,WSW,241,6.0,13.0,58,0.00,,,0.00,0.000000,,2013-05-21 04:13:00,
2013-05-20 23:23:00,65.0,50.0,-100.00,WSW,241,6.0,13.0,58,0.00,,,0.00,0.000000,,2013-05-21 04:23:00,
2013-05-20 23:33:00,65.0,50.0,-100.00,WSW,241,6.0,13.0,58,0.00,,,0.00,0.000000,,2013-05-21 04:33:00,
2013-05-20 23:42:00,65.0,50.0,-100.00,WSW,241,6.0,13.0,58,0.00,,,0.00,0.000000,,2013-05-21 04:42:00,